sensor_id;sensor_type;location;lat;lon;timestamp;P1;durP1;ratioP1;P2;durP2;ratioP2
14599;SDS011;7386;45.586;12.854;2022-12-07T00:01:04;42.00;;;34.57;;
14599;SDS011;7386;45.586;12.854;2022-12-07T00:03:34;43.60;;;35.87;;
14599;SDS011;7386;45.586;12.854;2022-12-07T00:06:03;42.87;;;35.70;;
14599;SDS011;7386;45.586;12.854;2022-12-07T00:08:32;43.53;;;35.73;;
14599;SDS011;7386;45.586;12.854;2022-12-07T00:11:01;41.67;;;34.37;;
14599;SDS011;7386;45.586;12.854;2022-12-07T00:13:30;42.07;;;34.60;;
14599;SDS011;7386;45.586;12.854;2022-12-07T00:16:00;40.47;;;34.07;;
14599;SDS011;7386;45.586;12.854;2022-12-07T00:18:29;39.17;;;34.07;;
14599;SDS011;7386;45.586;12.854;2022-12-07T00:21:02;41.30;;;32.83;;
14599;SDS011;7386;45.586;12.854;2022-12-07T00:23:31;39.83;;;34.23;;
14599;SDS011;7386;45.586;12.854;2022-12-07T00:26:05;39.30;;;31.80;;
14599;SDS011;7386;45.586;12.854;2022-12-07T00:28:33;43.03;;;32.80;;
14599;SDS011;7386;45.586;12.854;2022-12-07T00:31:03;38.37;;;32.20;;
14599;SDS011;7386;45.586;12.854;2022-12-07T00:33:32;42.50;;;32.33;;
14599;SDS011;7386;45.586;12.854;2022-12-07T00:36:02;39.90;;;33.10;;
14599;SDS011;7386;45.586;12.854;2022-12-07T00:38:32;38.53;;;33.13;;
14599;SDS011;7386;45.586;12.854;2022-12-07T00:41:01;38.27;;;32.77;;
14599;SDS011;7386;45.586;12.854;2022-12-07T00:43:30;39.27;;;34.50;;
14599;SDS011;7386;45.586;12.854;2022-12-07T00:45:58;39.73;;;33.43;;
14599;SDS011;7386;45.586;12.854;2022-12-07T00:48:27;37.60;;;32.33;;
14599;SDS011;7386;45.586;12.854;2022-12-07T00:50:56;41.33;;;33.17;;
14599;SDS011;7386;45.586;12.854;2022-12-07T00:53:26;38.70;;;33.53;;
14599;SDS011;7386;45.586;12.854;2022-12-07T00:55:54;39.23;;;33.60;;
14599;SDS011;7386;45.586;12.854;2022-12-07T00:58:23;39.73;;;32.63;;
14599;SDS011;7386;45.586;12.854;2022-12-07T01:00:51;39.20;;;33.93;;
14599;SDS011;7386;45.586;12.854;2022-12-07T01:03:20;39.70;;;32.40;;
14599;SDS011;7386;45.586;12.854;2022-12-07T01:05:49;41.40;;;33.73;;
14599;SDS011;7386;45.586;12.854;2022-12-07T01:08:18;36.83;;;31.43;;
14599;SDS011;7386;45.586;12.854;2022-12-07T01:10:49;35.10;;;30.07;;
14599;SDS011;7386;45.586;12.854;2022-12-07T01:13:17;37.20;;;31.30;;
14599;SDS011;7386;45.586;12.854;2022-12-07T01:15:46;37.00;;;29.80;;
14599;SDS011;7386;45.586;12.854;2022-12-07T01:18:14;35.27;;;29.50;;
14599;SDS011;7386;45.586;12.854;2022-12-07T01:20:43;35.13;;;29.03;;
14599;SDS011;7386;45.586;12.854;2022-12-07T01:23:11;31.50;;;27.30;;
14599;SDS011;7386;45.586;12.854;2022-12-07T01:25:40;38.77;;;28.57;;
14599;SDS011;7386;45.586;12.854;2022-12-07T01:28:09;36.63;;;27.67;;
14599;SDS011;7386;45.586;12.854;2022-12-07T01:30:38;32.50;;;25.33;;
14599;SDS011;7386;45.586;12.854;2022-12-07T01:33:06;30.10;;;24.40;;
14599;SDS011;7386;45.586;12.854;2022-12-07T01:35:35;32.57;;;24.53;;
14599;SDS011;7386;45.586;12.854;2022-12-07T01:38:03;26.97;;;23.00;;
14599;SDS011;7386;45.586;12.854;2022-12-07T01:40:32;29.20;;;24.63;;
14599;SDS011;7386;45.586;12.854;2022-12-07T01:43:00;27.50;;;22.83;;
14599;SDS011;7386;45.586;12.854;2022-12-07T01:48:08;26.50;;;22.47;;
14599;SDS011;7386;45.586;12.854;2022-12-07T01:50:37;27.77;;;23.47;;
14599;SDS011;7386;45.586;12.854;2022-12-07T01:53:06;30.63;;;24.60;;
14599;SDS011;7386;45.586;12.854;2022-12-07T01:55:38;31.47;;;24.73;;
14599;SDS011;7386;45.586;12.854;2022-12-07T01:58:07;30.10;;;24.20;;
14599;SDS011;7386;45.586;12.854;2022-12-07T02:00:36;32.70;;;24.67;;
14599;SDS011;7386;45.586;12.854;2022-12-07T02:03:04;28.23;;;24.00;;
14599;SDS011;7386;45.586;12.854;2022-12-07T02:05:37;30.67;;;24.43;;
14599;SDS011;7386;45.586;12.854;2022-12-07T02:08:05;27.90;;;24.03;;
14599;SDS011;7386;45.586;12.854;2022-12-07T02:10:34;27.47;;;24.27;;
14599;SDS011;7386;45.586;12.854;2022-12-07T02:13:03;27.63;;;22.70;;
14599;SDS011;7386;45.586;12.854;2022-12-07T02:15:35;27.43;;;22.60;;
14599;SDS011;7386;45.586;12.854;2022-12-07T02:18:07;28.50;;;23.33;;
14599;SDS011;7386;45.586;12.854;2022-12-07T02:20:39;27.30;;;22.57;;
14599;SDS011;7386;45.586;12.854;2022-12-07T02:26:02;26.10;;;20.87;;
14599;SDS011;7386;45.586;12.854;2022-12-07T02:28:46;25.13;;;22.00;;
14599;SDS011;7386;45.586;12.854;2022-12-07T02:31:17;26.43;;;22.43;;
14599;SDS011;7386;45.586;12.854;2022-12-07T02:33:48;25.47;;;21.23;;
14599;SDS011;7386;45.586;12.854;2022-12-07T02:36:19;25.00;;;21.43;;
14599;SDS011;7386;45.586;12.854;2022-12-07T02:38:51;26.13;;;21.60;;
14599;SDS011;7386;45.586;12.854;2022-12-07T02:41:24;26.93;;;21.67;;
14599;SDS011;7386;45.586;12.854;2022-12-07T02:43:57;25.53;;;21.50;;
14599;SDS011;7386;45.586;12.854;2022-12-07T02:46:28;23.97;;;20.20;;
14599;SDS011;7386;45.586;12.854;2022-12-07T02:48:58;24.30;;;20.43;;
14599;SDS011;7386;45.586;12.854;2022-12-07T02:51:29;23.90;;;20.37;;
14599;SDS011;7386;45.586;12.854;2022-12-07T02:53:58;23.83;;;19.93;;
14599;SDS011;7386;45.586;12.854;2022-12-07T02:56:27;23.00;;;19.63;;
14599;SDS011;7386;45.586;12.854;2022-12-07T02:59:02;22.27;;;19.30;;
14599;SDS011;7386;45.586;12.854;2022-12-07T03:01:37;22.37;;;18.87;;
14599;SDS011;7386;45.586;12.854;2022-12-07T03:04:11;22.57;;;18.30;;
14599;SDS011;7386;45.586;12.854;2022-12-07T03:06:43;21.10;;;17.30;;
14599;SDS011;7386;45.586;12.854;2022-12-07T03:09:14;22.03;;;16.97;;
14599;SDS011;7386;45.586;12.854;2022-12-07T03:11:44;19.00;;;15.87;;
14599;SDS011;7386;45.586;12.854;2022-12-07T03:14:15;19.93;;;16.73;;
14599;SDS011;7386;45.586;12.854;2022-12-07T03:16:47;20.90;;;16.33;;
14599;SDS011;7386;45.586;12.854;2022-12-07T03:19:19;19.20;;;16.63;;
14599;SDS011;7386;45.586;12.854;2022-12-07T03:21:49;18.73;;;15.63;;
14599;SDS011;7386;45.586;12.854;2022-12-07T03:24:20;18.47;;;15.57;;
14599;SDS011;7386;45.586;12.854;2022-12-07T03:26:50;17.73;;;14.70;;
14599;SDS011;7386;45.586;12.854;2022-12-07T03:29:22;17.73;;;15.57;;
14599;SDS011;7386;45.586;12.854;2022-12-07T03:31:53;19.97;;;15.53;;
14599;SDS011;7386;45.586;12.854;2022-12-07T03:34:24;16.63;;;14.20;;
14599;SDS011;7386;45.586;12.854;2022-12-07T03:36:56;16.07;;;14.33;;
14599;SDS011;7386;45.586;12.854;2022-12-07T03:39:26;16.10;;;14.27;;
14599;SDS011;7386;45.586;12.854;2022-12-07T03:41:55;16.53;;;13.97;;
14599;SDS011;7386;45.586;12.854;2022-12-07T03:44:26;16.47;;;13.93;;
14599;SDS011;7386;45.586;12.854;2022-12-07T03:46:57;15.97;;;12.83;;
14599;SDS011;7386;45.586;12.854;2022-12-07T03:49:27;18.57;;;13.10;;
14599;SDS011;7386;45.586;12.854;2022-12-07T03:52:00;15.93;;;13.23;;
14599;SDS011;7386;45.586;12.854;2022-12-07T03:54:31;17.60;;;13.40;;
14599;SDS011;7386;45.586;12.854;2022-12-07T03:57:02;17.00;;;13.93;;
14599;SDS011;7386;45.586;12.854;2022-12-07T03:59:33;17.83;;;13.87;;
14599;SDS011;7386;45.586;12.854;2022-12-07T04:02:04;16.63;;;13.03;;
14599;SDS011;7386;45.586;12.854;2022-12-07T04:04:33;15.90;;;13.13;;
14599;SDS011;7386;45.586;12.854;2022-12-07T04:07:02;16.43;;;14.20;;
14599;SDS011;7386;45.586;12.854;2022-12-07T04:09:30;16.60;;;13.53;;
14599;SDS011;7386;45.586;12.854;2022-12-07T04:11:59;15.90;;;13.10;;
14599;SDS011;7386;45.586;12.854;2022-12-07T04:14:27;16.27;;;13.53;;
14599;SDS011;7386;45.586;12.854;2022-12-07T04:16:57;18.87;;;13.77;;
14599;SDS011;7386;45.586;12.854;2022-12-07T04:19:27;14.83;;;13.00;;
14599;SDS011;7386;45.586;12.854;2022-12-07T04:21:55;16.63;;;13.67;;
14599;SDS011;7386;45.586;12.854;2022-12-07T04:24:24;18.97;;;14.53;;
14599;SDS011;7386;45.586;12.854;2022-12-07T04:26:53;16.57;;;13.63;;
14599;SDS011;7386;45.586;12.854;2022-12-07T04:29:21;18.93;;;14.87;;
14599;SDS011;7386;45.586;12.854;2022-12-07T04:31:50;16.43;;;14.10;;
14599;SDS011;7386;45.586;12.854;2022-12-07T04:34:20;15.80;;;13.70;;
14599;SDS011;7386;45.586;12.854;2022-12-07T04:36:49;20.07;;;14.63;;
14599;SDS011;7386;45.586;12.854;2022-12-07T04:39:18;17.50;;;13.97;;
14599;SDS011;7386;45.586;12.854;2022-12-07T04:41:48;17.80;;;13.90;;
14599;SDS011;7386;45.586;12.854;2022-12-07T04:44:16;16.70;;;13.50;;
14599;SDS011;7386;45.586;12.854;2022-12-07T04:46:45;17.30;;;13.20;;
14599;SDS011;7386;45.586;12.854;2022-12-07T04:49:14;18.73;;;14.20;;
14599;SDS011;7386;45.586;12.854;2022-12-07T04:51:44;16.80;;;13.77;;
14599;SDS011;7386;45.586;12.854;2022-12-07T04:54:12;17.97;;;13.93;;
14599;SDS011;7386;45.586;12.854;2022-12-07T04:56:41;17.77;;;13.20;;
14599;SDS011;7386;45.586;12.854;2022-12-07T04:59:10;16.07;;;12.80;;
14599;SDS011;7386;45.586;12.854;2022-12-07T05:01:39;15.53;;;12.87;;
14599;SDS011;7386;45.586;12.854;2022-12-07T05:04:07;16.83;;;13.07;;
14599;SDS011;7386;45.586;12.854;2022-12-07T05:06:35;16.03;;;12.37;;
14599;SDS011;7386;45.586;12.854;2022-12-07T05:09:05;16.47;;;12.40;;
14599;SDS011;7386;45.586;12.854;2022-12-07T05:11:33;14.50;;;11.97;;
14599;SDS011;7386;45.586;12.854;2022-12-07T05:14:11;15.30;;;11.77;;
14599;SDS011;7386;45.586;12.854;2022-12-07T05:16:42;15.60;;;11.67;;
14599;SDS011;7386;45.586;12.854;2022-12-07T05:19:10;14.40;;;10.80;;
14599;SDS011;7386;45.586;12.854;2022-12-07T05:21:39;13.00;;;10.90;;
14599;SDS011;7386;45.586;12.854;2022-12-07T05:24:09;13.27;;;10.43;;
14599;SDS011;7386;45.586;12.854;2022-12-07T05:26:39;13.50;;;10.60;;
14599;SDS011;7386;45.586;12.854;2022-12-07T05:29:10;15.57;;;9.97;;
14599;SDS011;7386;45.586;12.854;2022-12-07T05:31:39;13.33;;;10.13;;
14599;SDS011;7386;45.586;12.854;2022-12-07T05:34:08;12.30;;;10.00;;
14599;SDS011;7386;45.586;12.854;2022-12-07T05:36:36;13.90;;;10.47;;
14599;SDS011;7386;45.586;12.854;2022-12-07T05:39:04;10.67;;;9.17;;
14599;SDS011;7386;45.586;12.854;2022-12-07T05:41:34;14.63;;;10.13;;
14599;SDS011;7386;45.586;12.854;2022-12-07T05:44:20;14.33;;;9.70;;
14599;SDS011;7386;45.586;12.854;2022-12-07T05:46:48;13.23;;;9.57;;
14599;SDS011;7386;45.586;12.854;2022-12-07T05:49:17;12.03;;;9.23;;
14599;SDS011;7386;45.586;12.854;2022-12-07T05:51:45;10.90;;;9.53;;
14599;SDS011;7386;45.586;12.854;2022-12-07T05:54:13;12.10;;;9.60;;
14599;SDS011;7386;45.586;12.854;2022-12-07T05:56:43;10.27;;;8.57;;
14599;SDS011;7386;45.586;12.854;2022-12-07T05:59:11;11.03;;;9.37;;
14599;SDS011;7386;45.586;12.854;2022-12-07T06:01:53;10.37;;;8.67;;
14599;SDS011;7386;45.586;12.854;2022-12-07T06:04:23;9.60;;;8.53;;
14599;SDS011;7386;45.586;12.854;2022-12-07T06:06:52;10.33;;;8.87;;
14599;SDS011;7386;45.586;12.854;2022-12-07T06:09:21;9.83;;;7.83;;
14599;SDS011;7386;45.586;12.854;2022-12-07T06:11:51;10.87;;;8.13;;
14599;SDS011;7386;45.586;12.854;2022-12-07T06:14:36;10.43;;;8.13;;
14599;SDS011;7386;45.586;12.854;2022-12-07T06:17:05;10.10;;;8.20;;
14599;SDS011;7386;45.586;12.854;2022-12-07T06:19:33;11.77;;;8.27;;
14599;SDS011;7386;45.586;12.854;2022-12-07T06:22:02;11.60;;;8.63;;
14599;SDS011;7386;45.586;12.854;2022-12-07T06:24:31;12.97;;;8.47;;
14599;SDS011;7386;45.586;12.854;2022-12-07T06:27:02;10.67;;;7.93;;
14599;SDS011;7386;45.586;12.854;2022-12-07T06:29:31;9.50;;;7.77;;
14599;SDS011;7386;45.586;12.854;2022-12-07T06:31:59;8.83;;;7.43;;
14599;SDS011;7386;45.586;12.854;2022-12-07T06:34:28;11.37;;;7.37;;
14599;SDS011;7386;45.586;12.854;2022-12-07T06:36:56;12.47;;;7.97;;
14599;SDS011;7386;45.586;12.854;2022-12-07T06:39:26;12.70;;;8.10;;
14599;SDS011;7386;45.586;12.854;2022-12-07T06:41:54;10.00;;;8.00;;
14599;SDS011;7386;45.586;12.854;2022-12-07T06:44:24;9.27;;;7.60;;
14599;SDS011;7386;45.586;12.854;2022-12-07T06:46:53;11.07;;;7.97;;
14599;SDS011;7386;45.586;12.854;2022-12-07T06:49:41;9.77;;;8.00;;
14599;SDS011;7386;45.586;12.854;2022-12-07T06:52:10;9.53;;;7.60;;
14599;SDS011;7386;45.586;12.854;2022-12-07T06:54:38;9.30;;;7.10;;
14599;SDS011;7386;45.586;12.854;2022-12-07T06:57:06;9.27;;;7.40;;
14599;SDS011;7386;45.586;12.854;2022-12-07T06:59:36;8.93;;;7.13;;
14599;SDS011;7386;45.586;12.854;2022-12-07T07:02:05;9.10;;;7.13;;
14599;SDS011;7386;45.586;12.854;2022-12-07T07:04:34;8.47;;;6.50;;
14599;SDS011;7386;45.586;12.854;2022-12-07T07:07:02;8.63;;;5.83;;
14599;SDS011;7386;45.586;12.854;2022-12-07T07:09:30;7.77;;;6.50;;
14599;SDS011;7386;45.586;12.854;2022-12-07T07:11:59;8.80;;;6.97;;
14599;SDS011;7386;45.586;12.854;2022-12-07T07:14:27;8.50;;;6.83;;
14599;SDS011;7386;45.586;12.854;2022-12-07T07:16:57;8.60;;;7.00;;
14599;SDS011;7386;45.586;12.854;2022-12-07T07:19:26;8.50;;;6.47;;
14599;SDS011;7386;45.586;12.854;2022-12-07T07:21:54;8.57;;;6.70;;
14599;SDS011;7386;45.586;12.854;2022-12-07T07:24:23;8.40;;;6.60;;
14599;SDS011;7386;45.586;12.854;2022-12-07T07:26:52;6.90;;;6.00;;
14599;SDS011;7386;45.586;12.854;2022-12-07T07:29:20;7.33;;;6.17;;
14599;SDS011;7386;45.586;12.854;2022-12-07T07:31:49;7.30;;;6.03;;
14599;SDS011;7386;45.586;12.854;2022-12-07T07:34:19;17.37;;;6.20;;
14599;SDS011;7386;45.586;12.854;2022-12-07T07:36:47;7.50;;;6.20;;
14599;SDS011;7386;45.586;12.854;2022-12-07T07:39:15;8.17;;;6.57;;
14599;SDS011;7386;45.586;12.854;2022-12-07T07:41:44;6.97;;;6.00;;
14599;SDS011;7386;45.586;12.854;2022-12-07T07:44:12;7.60;;;6.10;;
14599;SDS011;7386;45.586;12.854;2022-12-07T07:46:41;8.27;;;6.33;;
14599;SDS011;7386;45.586;12.854;2022-12-07T07:49:09;7.03;;;6.17;;
14599;SDS011;7386;45.586;12.854;2022-12-07T07:51:39;7.37;;;6.00;;
14599;SDS011;7386;45.586;12.854;2022-12-07T07:54:08;7.53;;;6.00;;
14599;SDS011;7386;45.586;12.854;2022-12-07T07:56:36;9.40;;;6.40;;
14599;SDS011;7386;45.586;12.854;2022-12-07T07:59:04;8.83;;;6.37;;
14599;SDS011;7386;45.586;12.854;2022-12-07T08:01:33;7.10;;;5.93;;
14599;SDS011;7386;45.586;12.854;2022-12-07T08:04:01;7.77;;;5.63;;
14599;SDS011;7386;45.586;12.854;2022-12-07T08:06:30;7.93;;;6.23;;
14599;SDS011;7386;45.586;12.854;2022-12-07T08:09:00;6.43;;;5.57;;
14599;SDS011;7386;45.586;12.854;2022-12-07T08:11:28;8.40;;;6.13;;
14599;SDS011;7386;45.586;12.854;2022-12-07T08:13:57;11.50;;;6.40;;
14599;SDS011;7386;45.586;12.854;2022-12-07T08:16:25;11.47;;;6.37;;
14599;SDS011;7386;45.586;12.854;2022-12-07T08:18:54;8.67;;;6.17;;
14599;SDS011;7386;45.586;12.854;2022-12-07T08:21:22;11.13;;;7.90;;
14599;SDS011;7386;45.586;12.854;2022-12-07T08:23:51;7.40;;;6.30;;
14599;SDS011;7386;45.586;12.854;2022-12-07T08:26:21;7.20;;;6.07;;
14599;SDS011;7386;45.586;12.854;2022-12-07T08:28:50;8.20;;;6.07;;
14599;SDS011;7386;45.586;12.854;2022-12-07T08:31:18;7.87;;;6.00;;
14599;SDS011;7386;45.586;12.854;2022-12-07T08:33:47;7.67;;;5.67;;
14599;SDS011;7386;45.586;12.854;2022-12-07T08:36:16;8.37;;;6.43;;
14599;SDS011;7386;45.586;12.854;2022-12-07T08:38:44;12.67;;;6.73;;
14599;SDS011;7386;45.586;12.854;2022-12-07T08:41:34;7.93;;;6.00;;
14599;SDS011;7386;45.586;12.854;2022-12-07T08:44:02;8.67;;;6.53;;
14599;SDS011;7386;45.586;12.854;2022-12-07T08:46:32;11.70;;;7.93;;
14599;SDS011;7386;45.586;12.854;2022-12-07T08:49:06;8.57;;;6.30;;
14599;SDS011;7386;45.586;12.854;2022-12-07T08:51:39;10.47;;;7.07;;
14599;SDS011;7386;45.586;12.854;2022-12-07T08:54:09;11.10;;;7.43;;
14599;SDS011;7386;45.586;12.854;2022-12-07T08:56:41;9.03;;;7.13;;
14599;SDS011;7386;45.586;12.854;2022-12-07T08:59:12;9.30;;;7.17;;
14599;SDS011;7386;45.586;12.854;2022-12-07T09:01:42;11.40;;;7.40;;
14599;SDS011;7386;45.586;12.854;2022-12-07T09:04:10;8.67;;;7.30;;
14599;SDS011;7386;45.586;12.854;2022-12-07T09:06:38;9.33;;;6.23;;
14599;SDS011;7386;45.586;12.854;2022-12-07T09:09:08;8.73;;;6.77;;
14599;SDS011;7386;45.586;12.854;2022-12-07T09:11:38;8.10;;;6.50;;
14599;SDS011;7386;45.586;12.854;2022-12-07T09:14:08;8.97;;;6.33;;
14599;SDS011;7386;45.586;12.854;2022-12-07T09:16:36;8.97;;;7.60;;
14599;SDS011;7386;45.586;12.854;2022-12-07T09:19:04;8.80;;;7.30;;
14599;SDS011;7386;45.586;12.854;2022-12-07T09:21:32;8.00;;;6.53;;
14599;SDS011;7386;45.586;12.854;2022-12-07T09:24:01;12.57;;;7.93;;
14599;SDS011;7386;45.586;12.854;2022-12-07T09:26:29;10.83;;;7.60;;
14599;SDS011;7386;45.586;12.854;2022-12-07T09:28:57;11.60;;;7.57;;
14599;SDS011;7386;45.586;12.854;2022-12-07T09:31:27;10.37;;;8.00;;
14599;SDS011;7386;45.586;12.854;2022-12-07T09:33:55;9.30;;;8.17;;
14599;SDS011;7386;45.586;12.854;2022-12-07T09:36:25;10.43;;;7.97;;
14599;SDS011;7386;45.586;12.854;2022-12-07T09:38:54;13.33;;;8.10;;
14599;SDS011;7386;45.586;12.854;2022-12-07T09:41:22;9.20;;;7.50;;
14599;SDS011;7386;45.586;12.854;2022-12-07T09:43:52;10.00;;;8.00;;
14599;SDS011;7386;45.586;12.854;2022-12-07T09:46:26;10.73;;;8.07;;
14599;SDS011;7386;45.586;12.854;2022-12-07T09:48:56;11.80;;;8.27;;
14599;SDS011;7386;45.586;12.854;2022-12-07T09:51:24;11.83;;;8.50;;
14599;SDS011;7386;45.586;12.854;2022-12-07T09:53:53;12.37;;;8.43;;
14599;SDS011;7386;45.586;12.854;2022-12-07T09:56:24;10.37;;;8.00;;
14599;SDS011;7386;45.586;12.854;2022-12-07T09:58:54;12.70;;;8.70;;
14599;SDS011;7386;45.586;12.854;2022-12-07T10:01:29;9.17;;;7.60;;
14599;SDS011;7386;45.586;12.854;2022-12-07T10:04:01;13.23;;;8.13;;
14599;SDS011;7386;45.586;12.854;2022-12-07T10:06:36;9.67;;;8.00;;
14599;SDS011;7386;45.586;12.854;2022-12-07T10:09:08;11.33;;;8.40;;
14599;SDS011;7386;45.586;12.854;2022-12-07T10:14:29;16.27;;;8.10;;
14599;SDS011;7386;45.586;12.854;2022-12-07T10:17:28;8.23;;;7.00;;
14599;SDS011;7386;45.586;12.854;2022-12-07T10:20:23;10.20;;;7.67;;
14599;SDS011;7386;45.586;12.854;2022-12-07T10:22:57;12.80;;;7.97;;
14599;SDS011;7386;45.586;12.854;2022-12-07T10:25:30;8.47;;;7.07;;
14599;SDS011;7386;45.586;12.854;2022-12-07T10:28:00;9.53;;;7.47;;
14599;SDS011;7386;45.586;12.854;2022-12-07T10:30:46;9.73;;;7.43;;
14599;SDS011;7386;45.586;12.854;2022-12-07T10:33:31;7.93;;;6.10;;
14599;SDS011;7386;45.586;12.854;2022-12-07T10:36:15;9.27;;;7.23;;
14599;SDS011;7386;45.586;12.854;2022-12-07T10:38:47;11.27;;;7.77;;
14599;SDS011;7386;45.586;12.854;2022-12-07T10:41:17;11.93;;;7.50;;
14599;SDS011;7386;45.586;12.854;2022-12-07T10:43:47;9.17;;;7.40;;
14599;SDS011;7386;45.586;12.854;2022-12-07T10:46:29;8.37;;;7.10;;
14599;SDS011;7386;45.586;12.854;2022-12-07T10:52:38;9.97;;;7.70;;
14599;SDS011;7386;45.586;12.854;2022-12-07T10:55:21;9.03;;;7.47;;
14599;SDS011;7386;45.586;12.854;2022-12-07T10:58:01;9.53;;;7.20;;
14599;SDS011;7386;45.586;12.854;2022-12-07T11:00:45;8.07;;;6.40;;
14599;SDS011;7386;45.586;12.854;2022-12-07T11:03:28;10.43;;;6.90;;
14599;SDS011;7386;45.586;12.854;2022-12-07T11:06:10;8.23;;;6.83;;
14599;SDS011;7386;45.586;12.854;2022-12-07T11:08:54;9.83;;;7.00;;
14599;SDS011;7386;45.586;12.854;2022-12-07T11:11:33;10.27;;;6.93;;
14599;SDS011;7386;45.586;12.854;2022-12-07T11:14:05;10.10;;;7.10;;
14599;SDS011;7386;45.586;12.854;2022-12-07T11:16:49;8.90;;;7.30;;
14599;SDS011;7386;45.586;12.854;2022-12-07T11:19:32;9.47;;;7.37;;
14599;SDS011;7386;45.586;12.854;2022-12-07T11:22:18;13.00;;;7.20;;
14599;SDS011;7386;45.586;12.854;2022-12-07T11:24:59;9.37;;;7.27;;
14599;SDS011;7386;45.586;12.854;2022-12-07T11:27:39;9.70;;;7.23;;
14599;SDS011;7386;45.586;12.854;2022-12-07T11:30:12;8.37;;;7.30;;
14599;SDS011;7386;45.586;12.854;2022-12-07T11:32:50;8.97;;;7.40;;
14599;SDS011;7386;45.586;12.854;2022-12-07T11:35:25;7.77;;;6.90;;
14599;SDS011;7386;45.586;12.854;2022-12-07T11:38:01;9.03;;;7.40;;
14599;SDS011;7386;45.586;12.854;2022-12-07T11:40:39;7.83;;;6.80;;
14599;SDS011;7386;45.586;12.854;2022-12-07T11:43:13;9.30;;;7.07;;
14599;SDS011;7386;45.586;12.854;2022-12-07T11:45:47;9.70;;;7.10;;
14599;SDS011;7386;45.586;12.854;2022-12-07T11:48:24;11.17;;;7.17;;
14599;SDS011;7386;45.586;12.854;2022-12-07T11:50:59;8.27;;;7.00;;
14599;SDS011;7386;45.586;12.854;2022-12-07T11:53:32;9.97;;;7.40;;
14599;SDS011;7386;45.586;12.854;2022-12-07T11:56:08;8.50;;;6.30;;
14599;SDS011;7386;45.586;12.854;2022-12-07T11:58:44;7.73;;;6.70;;
14599;SDS011;7386;45.586;12.854;2022-12-07T12:01:25;8.70;;;7.07;;
14599;SDS011;7386;45.586;12.854;2022-12-07T12:04:01;8.33;;;6.80;;
14599;SDS011;7386;45.586;12.854;2022-12-07T12:06:35;11.17;;;7.23;;
14599;SDS011;7386;45.586;12.854;2022-12-07T12:09:04;8.87;;;6.50;;
14599;SDS011;7386;45.586;12.854;2022-12-07T12:15:35;9.03;;;6.83;;
14599;SDS011;7386;45.586;12.854;2022-12-07T12:21:07;9.43;;;6.27;;
14599;SDS011;7386;45.586;12.854;2022-12-07T12:23:39;8.43;;;6.57;;
14599;SDS011;7386;45.586;12.854;2022-12-07T12:26:14;7.90;;;6.50;;
14599;SDS011;7386;45.586;12.854;2022-12-07T12:28:50;7.90;;;6.23;;
14599;SDS011;7386;45.586;12.854;2022-12-07T12:31:31;7.07;;;5.50;;
14599;SDS011;7386;45.586;12.854;2022-12-07T12:34:03;10.10;;;6.63;;
14599;SDS011;7386;45.586;12.854;2022-12-07T12:36:52;8.07;;;6.40;;
14599;SDS011;7386;45.586;12.854;2022-12-07T12:39:21;8.90;;;6.50;;
14599;SDS011;7386;45.586;12.854;2022-12-07T12:41:59;7.17;;;5.63;;
14599;SDS011;7386;45.586;12.854;2022-12-07T12:47:55;7.93;;;5.97;;
14599;SDS011;7386;45.586;12.854;2022-12-07T12:50:25;7.87;;;6.33;;
14599;SDS011;7386;45.586;12.854;2022-12-07T12:53:02;7.37;;;5.73;;
14599;SDS011;7386;45.586;12.854;2022-12-07T12:55:46;7.73;;;6.10;;
14599;SDS011;7386;45.586;12.854;2022-12-07T12:58:33;8.30;;;6.50;;
14599;SDS011;7386;45.586;12.854;2022-12-07T13:04:17;6.50;;;5.40;;
14599;SDS011;7386;45.586;12.854;2022-12-07T13:06:46;6.47;;;5.30;;
14599;SDS011;7386;45.586;12.854;2022-12-07T13:09:19;5.93;;;5.10;;
14599;SDS011;7386;45.586;12.854;2022-12-07T13:11:49;9.10;;;5.47;;
14599;SDS011;7386;45.586;12.854;2022-12-07T13:17:10;7.83;;;5.67;;
14599;SDS011;7386;45.586;12.854;2022-12-07T13:28:15;8.67;;;6.00;;
14599;SDS011;7386;45.586;12.854;2022-12-07T13:30:45;7.17;;;5.70;;
14599;SDS011;7386;45.586;12.854;2022-12-07T13:33:15;7.60;;;6.10;;
14599;SDS011;7386;45.586;12.854;2022-12-07T13:35:46;6.20;;;5.43;;
14599;SDS011;7386;45.586;12.854;2022-12-07T13:38:21;7.47;;;5.77;;
14599;SDS011;7386;45.586;12.854;2022-12-07T13:41:00;8.87;;;6.07;;
14599;SDS011;7386;45.586;12.854;2022-12-07T13:43:30;7.10;;;5.53;;
14599;SDS011;7386;45.586;12.854;2022-12-07T13:45:59;6.60;;;5.60;;
14599;SDS011;7386;45.586;12.854;2022-12-07T13:48:30;7.40;;;5.40;;
14599;SDS011;7386;45.586;12.854;2022-12-07T13:51:00;6.00;;;4.87;;
14599;SDS011;7386;45.586;12.854;2022-12-07T13:53:29;6.03;;;5.10;;
14599;SDS011;7386;45.586;12.854;2022-12-07T13:55:58;5.70;;;4.87;;
14599;SDS011;7386;45.586;12.854;2022-12-07T13:58:27;7.10;;;5.70;;
14599;SDS011;7386;45.586;12.854;2022-12-07T14:00:59;7.67;;;5.90;;
14599;SDS011;7386;45.586;12.854;2022-12-07T14:03:29;7.50;;;6.07;;
14599;SDS011;7386;45.586;12.854;2022-12-07T14:08:48;7.10;;;5.60;;
14599;SDS011;7386;45.586;12.854;2022-12-07T14:11:28;8.33;;;6.23;;
14599;SDS011;7386;45.586;12.854;2022-12-07T14:13:57;6.07;;;4.77;;
14599;SDS011;7386;45.586;12.854;2022-12-07T14:16:28;6.43;;;5.67;;
14599;SDS011;7386;45.586;12.854;2022-12-07T14:18:58;7.10;;;5.40;;
14599;SDS011;7386;45.586;12.854;2022-12-07T14:21:27;7.73;;;5.23;;
14599;SDS011;7386;45.586;12.854;2022-12-07T14:24:07;8.43;;;5.50;;
14599;SDS011;7386;45.586;12.854;2022-12-07T14:26:37;8.77;;;5.63;;
14599;SDS011;7386;45.586;12.854;2022-12-07T14:29:18;7.10;;;5.23;;
14599;SDS011;7386;45.586;12.854;2022-12-07T14:31:48;7.90;;;5.83;;
14599;SDS011;7386;45.586;12.854;2022-12-07T14:34:19;9.93;;;5.80;;
14599;SDS011;7386;45.586;12.854;2022-12-07T14:36:47;5.87;;;4.90;;
14599;SDS011;7386;45.586;12.854;2022-12-07T14:39:16;8.00;;;5.67;;
14599;SDS011;7386;45.586;12.854;2022-12-07T14:41:44;5.87;;;4.87;;
14599;SDS011;7386;45.586;12.854;2022-12-07T14:44:19;6.53;;;5.40;;
14599;SDS011;7386;45.586;12.854;2022-12-07T14:46:53;7.53;;;5.97;;
14599;SDS011;7386;45.586;12.854;2022-12-07T14:49:42;7.70;;;5.37;;
14599;SDS011;7386;45.586;12.854;2022-12-07T14:52:12;8.67;;;5.77;;
14599;SDS011;7386;45.586;12.854;2022-12-07T14:55:01;9.93;;;5.87;;
14599;SDS011;7386;45.586;12.854;2022-12-07T14:57:30;6.40;;;5.30;;
14599;SDS011;7386;45.586;12.854;2022-12-07T15:00:01;8.37;;;5.83;;
14599;SDS011;7386;45.586;12.854;2022-12-07T15:02:31;6.57;;;5.23;;
14599;SDS011;7386;45.586;12.854;2022-12-07T15:04:59;10.20;;;5.07;;
14599;SDS011;7386;45.586;12.854;2022-12-07T15:07:28;9.00;;;5.33;;
14599;SDS011;7386;45.586;12.854;2022-12-07T15:09:56;7.67;;;5.50;;
14599;SDS011;7386;45.586;12.854;2022-12-07T15:12:24;7.00;;;5.90;;
14599;SDS011;7386;45.586;12.854;2022-12-07T15:14:53;7.83;;;5.67;;
14599;SDS011;7386;45.586;12.854;2022-12-07T15:17:21;8.00;;;5.30;;
14599;SDS011;7386;45.586;12.854;2022-12-07T15:19:59;8.23;;;5.80;;
14599;SDS011;7386;45.586;12.854;2022-12-07T15:22:27;9.23;;;6.20;;
14599;SDS011;7386;45.586;12.854;2022-12-07T15:25:03;8.50;;;5.37;;
14599;SDS011;7386;45.586;12.854;2022-12-07T15:27:32;9.13;;;6.27;;
14599;SDS011;7386;45.586;12.854;2022-12-07T15:30:01;9.40;;;6.13;;
14599;SDS011;7386;45.586;12.854;2022-12-07T15:32:30;9.17;;;5.70;;
14599;SDS011;7386;45.586;12.854;2022-12-07T15:34:59;8.13;;;6.23;;
14599;SDS011;7386;45.586;12.854;2022-12-07T15:37:28;8.53;;;6.60;;
14599;SDS011;7386;45.586;12.854;2022-12-07T15:39:56;9.43;;;7.33;;